sensor_id;sensor_type;location;lat;lon;timestamp;pressure;altitude;pressure_sealevel;temperature;humidity
15193;BME280;7697;51.630;7.484;2022-11-22T00:03:23;98557.13;;;7.19;96.98
15193;BME280;7697;51.630;7.484;2022-11-22T00:08:25;98552.81;;;7.24;97.56
15193;BME280;7697;51.630;7.484;2022-11-22T00:13:26;98545.47;;;7.26;97.09
15193;BME280;7697;51.630;7.484;2022-11-22T00:18:30;98552.34;;;7.27;96.85
15193;BME280;7697;51.630;7.484;2022-11-22T00:23:32;98550.28;;;7.29;97.21
15193;BME280;7697;51.630;7.484;2022-11-22T00:28:33;98550.72;;;7.26;97.63
15193;BME280;7697;51.630;7.484;2022-11-22T00:33:36;98542.84;;;7.26;97.54
15193;BME280;7697;51.630;7.484;2022-11-22T00:38:38;98530.47;;;7.27;97.98
15193;BME280;7697;51.630;7.484;2022-11-22T00:43:40;98527.84;;;7.27;97.66
15193;BME280;7697;51.630;7.484;2022-11-22T00:48:43;98505.75;;;7.28;97.23
15193;BME280;7697;51.630;7.484;2022-11-22T00:53:45;98513.66;;;7.28;98.33
15193;BME280;7697;51.630;7.484;2022-11-22T00:58:46;98504.50;;;7.30;96.79
15193;BME280;7697;51.630;7.484;2022-11-22T01:03:50;98503.78;;;7.35;97.15
15193;BME280;7697;51.630;7.484;2022-11-22T01:08:52;98509.41;;;7.38;97.13
15193;BME280;7697;51.630;7.484;2022-11-22T01:13:53;98512.06;;;7.38;97.35
15193;BME280;7697;51.630;7.484;2022-11-22T01:18:56;98513.44;;;7.41;96.72
15193;BME280;7697;51.630;7.484;2022-11-22T01:23:58;98503.22;;;7.44;96.54
15193;BME280;7697;51.630;7.484;2022-11-22T01:29:00;98504.38;;;7.48;96.40
15193;BME280;7697;51.630;7.484;2022-11-22T01:34:04;98494.41;;;7.50;96.42
15193;BME280;7697;51.630;7.484;2022-11-22T01:39:05;98502.88;;;7.52;96.60
15193;BME280;7697;51.630;7.484;2022-11-22T01:44:18;98509.50;;;7.55;96.27
15193;BME280;7697;51.630;7.484;2022-11-22T01:49:26;98516.38;;;7.56;96.44
15193;BME280;7697;51.630;7.484;2022-11-22T01:54:33;98526.13;;;7.56;97.71
15193;BME280;7697;51.630;7.484;2022-11-22T01:59:38;98521.06;;;7.54;98.45
15193;BME280;7697;51.630;7.484;2022-11-22T02:04:44;98509.41;;;7.50;98.69
15193;BME280;7697;51.630;7.484;2022-11-22T02:09:47;98531.28;;;7.50;99.81
15193;BME280;7697;51.630;7.484;2022-11-22T02:14:52;98517.78;;;7.47;100.00
15193;BME280;7697;51.630;7.484;2022-11-22T02:19:55;98522.00;;;7.48;100.00
15193;BME280;7697;51.630;7.484;2022-11-22T02:25:02;98514.34;;;7.46;100.00
15193;BME280;7697;51.630;7.484;2022-11-22T02:30:07;98524.88;;;7.46;100.00
15193;BME280;7697;51.630;7.484;2022-11-22T02:35:16;98541.03;;;7.50;100.00
15193;BME280;7697;51.630;7.484;2022-11-22T02:40:19;98538.16;;;7.51;100.00
15193;BME280;7697;51.630;7.484;2022-11-22T02:45:22;98533.66;;;7.52;100.00
15193;BME280;7697;51.630;7.484;2022-11-22T02:50:24;98540.09;;;7.56;100.00
15193;BME280;7697;51.630;7.484;2022-11-22T02:55:25;98547.78;;;7.58;100.00
15193;BME280;7697;51.630;7.484;2022-11-22T03:00:28;98555.78;;;7.63;100.00
15193;BME280;7697;51.630;7.484;2022-11-22T03:05:30;98555.31;;;7.66;100.00
15193;BME280;7697;51.630;7.484;2022-11-22T03:10:32;98567.34;;;7.73;100.00
15193;BME280;7697;51.630;7.484;2022-11-22T03:15:35;98566.09;;;7.76;100.00
15193;BME280;7697;51.630;7.484;2022-11-22T03:20:37;98564.81;;;7.78;100.00
15193;BME280;7697;51.630;7.484;2022-11-22T03:25:38;98563.53;;;7.81;100.00
15193;BME280;7697;51.630;7.484;2022-11-22T03:30:41;98572.03;;;7.83;100.00
15193;BME280;7697;51.630;7.484;2022-11-22T03:35:43;98583.94;;;7.85;100.00
15193;BME280;7697;51.630;7.484;2022-11-22T03:40:45;98587.38;;;7.86;100.00
15193;BME280;7697;51.630;7.484;2022-11-22T03:45:48;98595.03;;;7.87;100.00
15193;BME280;7697;51.630;7.484;2022-11-22T03:50:49;98602.72;;;7.89;100.00
15193;BME280;7697;51.630;7.484;2022-11-22T03:55:51;98607.97;;;7.89;100.00
15193;BME280;7697;51.630;7.484;2022-11-22T04:00:54;98601.69;;;7.90;100.00
15193;BME280;7697;51.630;7.484;2022-11-22T04:05:56;98611.19;;;7.91;100.00
15193;BME280;7697;51.630;7.484;2022-11-22T04:10:58;98615.34;;;7.87;100.00
15193;BME280;7697;51.630;7.484;2022-11-22T04:16:00;98620.47;;;7.82;100.00
15193;BME280;7697;51.630;7.484;2022-11-22T04:21:02;98615.13;;;7.77;100.00
15193;BME280;7697;51.630;7.484;2022-11-22T04:26:21;98619.66;;;7.70;100.00
15193;BME280;7697;51.630;7.484;2022-11-22T04:31:24;98634.56;;;7.64;100.00
15193;BME280;7697;51.630;7.484;2022-11-22T04:36:44;98633.19;;;7.62;100.00
15193;BME280;7697;51.630;7.484;2022-11-22T04:41:45;98649.00;;;7.62;100.00
15193;BME280;7697;51.630;7.484;2022-11-22T04:47:09;98645.09;;;7.64;100.00
15193;BME280;7697;51.630;7.484;2022-11-22T04:52:11;98644.53;;;7.62;100.00
15193;BME280;7697;51.630;7.484;2022-11-22T04:57:30;98651.06;;;7.60;100.00
15193;BME280;7697;51.630;7.484;2022-11-22T05:02:33;98652.75;;;7.54;100.00
15193;BME280;7697;51.630;7.484;2022-11-22T05:07:34;98652.66;;;7.49;100.00
15193;BME280;7697;51.630;7.484;2022-11-22T05:12:36;98648.63;;;7.46;100.00
15193;BME280;7697;51.630;7.484;2022-11-22T05:17:39;98641.88;;;7.39;100.00
15193;BME280;7697;51.630;7.484;2022-11-22T05:22:41;98654.78;;;7.29;100.00
15193;BME280;7697;51.630;7.484;2022-11-22T05:28:02;98644.59;;;7.21;100.00
15193;BME280;7697;51.630;7.484;2022-11-22T05:33:05;98644.09;;;7.12;100.00
15193;BME280;7697;51.630;7.484;2022-11-22T05:38:07;98646.47;;;7.02;100.00
15193;BME280;7697;51.630;7.484;2022-11-22T05:43:09;98643.34;;;6.93;100.00
15193;BME280;7697;51.630;7.484;2022-11-22T05:48:12;98651.34;;;6.87;100.00
15193;BME280;7697;51.630;7.484;2022-11-22T05:53:13;98647.19;;;6.79;100.00
15193;BME280;7697;51.630;7.484;2022-11-22T05:58:15;98651.28;;;6.75;100.00
15193;BME280;7697;51.630;7.484;2022-11-22T06:03:18;98666.13;;;6.69;100.00
15193;BME280;7697;51.630;7.484;2022-11-22T06:08:20;98680.31;;;6.68;100.00
15193;BME280;7697;51.630;7.484;2022-11-22T06:13:21;98684.03;;;6.61;100.00
15193;BME280;7697;51.630;7.484;2022-11-22T06:18:24;98688.72;;;6.59;100.00
15193;BME280;7697;51.630;7.484;2022-11-22T06:23:27;98707.13;;;6.59;100.00
15193;BME280;7697;51.630;7.484;2022-11-22T06:28:29;98712.97;;;6.61;100.00
15193;BME280;7697;51.630;7.484;2022-11-22T06:33:33;98711.38;;;6.60;100.00
15193;BME280;7697;51.630;7.484;2022-11-22T06:38:35;98709.66;;;6.65;100.00
15193;BME280;7697;51.630;7.484;2022-11-22T06:43:39;98710.69;;;6.64;100.00
15193;BME280;7697;51.630;7.484;2022-11-22T06:48:42;98714.22;;;6.58;100.00
15193;BME280;7697;51.630;7.484;2022-11-22T06:53:45;98724.56;;;6.53;100.00
15193;BME280;7697;51.630;7.484;2022-11-22T06:58:49;98725.81;;;6.51;100.00
15193;BME280;7697;51.630;7.484;2022-11-22T07:03:53;98729.47;;;6.50;100.00
15193;BME280;7697;51.630;7.484;2022-11-22T07:08:58;98737.94;;;6.52;100.00
15193;BME280;7697;51.630;7.484;2022-11-22T07:14:01;98737.16;;;6.51;100.00
15193;BME280;7697;51.630;7.484;2022-11-22T07:19:04;98744.00;;;6.52;100.00
15193;BME280;7697;51.630;7.484;2022-11-22T07:24:07;98752.91;;;6.51;100.00
15193;BME280;7697;51.630;7.484;2022-11-22T07:29:09;98760.81;;;6.51;100.00
15193;BME280;7697;51.630;7.484;2022-11-22T07:34:14;98758.19;;;6.51;99.84
15193;BME280;7697;51.630;7.484;2022-11-22T07:39:15;98757.38;;;6.51;100.00
15193;BME280;7697;51.630;7.484;2022-11-22T07:44:17;98766.28;;;6.50;100.00
15193;BME280;7697;51.630;7.484;2022-11-22T07:49:20;98768.09;;;6.49;100.00
15193;BME280;7697;51.630;7.484;2022-11-22T07:54:22;98764.47;;;6.50;100.00
15193;BME280;7697;51.630;7.484;2022-11-22T07:59:23;98776.13;;;6.54;99.59
15193;BME280;7697;51.630;7.484;2022-11-22T08:04:26;98766.59;;;6.60;98.98
15193;BME280;7697;51.630;7.484;2022-11-22T08:09:28;98765.28;;;6.69;99.12
15193;BME280;7697;51.630;7.484;2022-11-22T08:14:30;98752.97;;;6.81;99.11
15193;BME280;7697;51.630;7.484;2022-11-22T08:19:33;98768.72;;;6.88;98.77
15193;BME280;7697;51.630;7.484;2022-11-22T08:24:37;98764.59;;;6.92;98.07
15193;BME280;7697;51.630;7.484;2022-11-22T08:29:39;98777.25;;;7.01;97.66
15193;BME280;7697;51.630;7.484;2022-11-22T08:34:42;98767.66;;;7.07;97.32
15193;BME280;7697;51.630;7.484;2022-11-22T08:39:43;98775.03;;;7.16;96.89
15193;BME280;7697;51.630;7.484;2022-11-22T08:44:45;98779.44;;;7.34;95.40
15193;BME280;7697;51.630;7.484;2022-11-22T08:49:48;98779.44;;;7.64;94.76
15193;BME280;7697;51.630;7.484;2022-11-22T08:54:50;98778.06;;;8.03;93.80
15193;BME280;7697;51.630;7.484;2022-11-22T08:59:52;98786.25;;;8.37;92.87
15193;BME280;7697;51.630;7.484;2022-11-22T09:04:55;98781.75;;;8.72;91.29
15193;BME280;7697;51.630;7.484;2022-11-22T09:09:56;98796.16;;;9.04;90.08
15193;BME280;7697;51.630;7.484;2022-11-22T09:14:59;98813.50;;;9.40;89.84
15193;BME280;7697;51.630;7.484;2022-11-22T09:20:03;98806.72;;;9.73;87.28
15193;BME280;7697;51.630;7.484;2022-11-22T09:25:05;98819.66;;;10.03;85.86
15193;BME280;7697;51.630;7.484;2022-11-22T09:30:08;98820.13;;;10.28;82.96
15193;BME280;7697;51.630;7.484;2022-11-22T09:35:11;98819.22;;;10.39;81.53
15193;BME280;7697;51.630;7.484;2022-11-22T09:40:16;98815.28;;;10.59;80.67
15193;BME280;7697;51.630;7.484;2022-11-22T09:45:31;98824.31;;;10.79;80.05
15193;BME280;7697;51.630;7.484;2022-11-22T09:50:42;98829.13;;;11.04;78.57
15193;BME280;7697;51.630;7.484;2022-11-22T09:55:48;98830.44;;;11.23;77.41
15193;BME280;7697;51.630;7.484;2022-11-22T10:00:55;98821.56;;;11.35;74.96
15193;BME280;7697;51.630;7.484;2022-11-22T10:06:03;98819.78;;;11.40;75.27
15193;BME280;7697;51.630;7.484;2022-11-22T10:11:13;98831.00;;;11.25;74.88
15193;BME280;7697;51.630;7.484;2022-11-22T10:16:22;98845.56;;;11.45;75.75
15193;BME280;7697;51.630;7.484;2022-11-22T10:21:28;98839.81;;;11.53;75.17
15193;BME280;7697;51.630;7.484;2022-11-22T10:26:30;98833.28;;;11.39;74.39
15193;BME280;7697;51.630;7.484;2022-11-22T10:31:38;98837.22;;;11.14;74.33
15193;BME280;7697;51.630;7.484;2022-11-22T10:36:47;98824.09;;;11.03;75.27
15193;BME280;7697;51.630;7.484;2022-11-22T10:41:59;98819.44;;;10.93;75.56
15193;BME280;7697;51.630;7.484;2022-11-22T10:47:13;98823.72;;;10.94;75.56
15193;BME280;7697;51.630;7.484;2022-11-22T10:52:26;98813.91;;;10.73;75.79
15193;BME280;7697;51.630;7.484;2022-11-22T10:57:36;98805.56;;;10.64;76.14
15193;BME280;7697;51.630;7.484;2022-11-22T11:02:54;98807.69;;;10.45;76.26
15193;BME280;7697;51.630;7.484;2022-11-22T11:08:00;98801.09;;;10.31;75.99
15193;BME280;7697;51.630;7.484;2022-11-22T11:13:06;98809.25;;;10.13;76.77
15193;BME280;7697;51.630;7.484;2022-11-22T11:18:16;98803.31;;;10.06;76.20
15193;BME280;7697;51.630;7.484;2022-11-22T11:23:21;98797.03;;;9.95;77.53
15193;BME280;7697;51.630;7.484;2022-11-22T11:28:24;98780.47;;;10.00;77.22
15193;BME280;7697;51.630;7.484;2022-11-22T11:33:28;98776.41;;;10.09;77.21
15193;BME280;7697;51.630;7.484;2022-11-22T11:38:34;98774.47;;;10.21;76.63
15193;BME280;7697;51.630;7.484;2022-11-22T11:43:41;98759.75;;;10.25;76.25
15193;BME280;7697;51.630;7.484;2022-11-22T11:48:43;98768.72;;;10.24;75.94
15193;BME280;7697;51.630;7.484;2022-11-22T11:53:59;98761.34;;;10.26;76.41
15193;BME280;7697;51.630;7.484;2022-11-22T11:59:08;98760.22;;;10.22;77.12
15193;BME280;7697;51.630;7.484;2022-11-22T12:04:17;98762.66;;;10.12;76.15
15193;BME280;7697;51.630;7.484;2022-11-22T12:09:29;98764.50;;;10.11;75.25
15193;BME280;7697;51.630;7.484;2022-11-22T12:14:31;98761.81;;;10.23;77.08
15193;BME280;7697;51.630;7.484;2022-11-22T12:19:42;98767.75;;;10.30;76.27
15193;BME280;7697;51.630;7.484;2022-11-22T12:24:53;98771.13;;;10.26;75.95
15193;BME280;7697;51.630;7.484;2022-11-22T12:29:57;98785.72;;;10.28;75.73
15193;BME280;7697;51.630;7.484;2022-11-22T12:35:02;98771.94;;;10.26;75.95
15193;BME280;7697;51.630;7.484;2022-11-22T12:40:13;98770.78;;;10.22;75.99
15193;BME280;7697;51.630;7.484;2022-11-22T12:45:23;98767.91;;;10.24;76.06
15193;BME280;7697;51.630;7.484;2022-11-22T12:50:29;98767.91;;;10.24;75.50
15193;BME280;7697;51.630;7.484;2022-11-22T12:55:43;98777.41;;;10.20;76.21
15193;BME280;7697;51.630;7.484;2022-11-22T13:01:07;98764.47;;;10.23;75.20
15193;BME280;7697;51.630;7.484;2022-11-22T13:06:11;98770.50;;;10.19;75.59
15193;BME280;7697;51.630;7.484;2022-11-22T13:11:18;98771.28;;;10.19;75.74
15193;BME280;7697;51.630;7.484;2022-11-22T13:16:22;98762.06;;;10.22;75.84
15193;BME280;7697;51.630;7.484;2022-11-22T13:21:28;98767.69;;;10.25;75.22
15193;BME280;7697;51.630;7.484;2022-11-22T13:26:36;98759.91;;;10.35;75.91
15193;BME280;7697;51.630;7.484;2022-11-22T13:32:00;98759.53;;;10.48;75.60
15193;BME280;7697;51.630;7.484;2022-11-22T13:37:08;98755.09;;;10.71;74.74
15193;BME280;7697;51.630;7.484;2022-11-22T13:42:16;98751.22;;;11.00;75.20
15193;BME280;7697;51.630;7.484;2022-11-22T13:47:41;98760.66;;;10.91;73.05
15193;BME280;7697;51.630;7.484;2022-11-22T13:52:50;98762.78;;;10.72;73.69
15193;BME280;7697;51.630;7.484;2022-11-22T13:57:54;98758.97;;;10.63;74.58
15193;BME280;7697;51.630;7.484;2022-11-22T14:08:34;98755.84;;;10.49;74.13
15193;BME280;7697;51.630;7.484;2022-11-22T14:13:42;98747.75;;;10.39;75.30
15193;BME280;7697;51.630;7.484;2022-11-22T14:18:58;98744.25;;;10.34;75.93
15193;BME280;7697;51.630;7.484;2022-11-22T14:24:07;98740.56;;;10.35;76.24
15193;BME280;7697;51.630;7.484;2022-11-22T14:29:47;98741.13;;;10.37;76.16
15193;BME280;7697;51.630;7.484;2022-11-22T14:35:22;98750.34;;;10.34;76.45
15193;BME280;7697;51.630;7.484;2022-11-22T14:40:31;98751.41;;;10.33;77.46
15193;BME280;7697;51.630;7.484;2022-11-22T14:45:41;98764.56;;;10.28;76.79
15193;BME280;7697;51.630;7.484;2022-11-22T14:50:47;98756.53;;;10.23;76.81
15193;BME280;7697;51.630;7.484;2022-11-22T14:55:55;98750.94;;;10.20;76.60
15193;BME280;7697;51.630;7.484;2022-11-22T15:01:27;98748.63;;;10.11;77.52
15193;BME280;7697;51.630;7.484;2022-11-22T15:06:40;98750.25;;;10.12;77.45
15193;BME280;7697;51.630;7.484;2022-11-22T15:11:54;98737.75;;;10.08;77.29
15193;BME280;7697;51.630;7.484;2022-11-22T15:17:02;98753.28;;;10.04;77.56
15193;BME280;7697;51.630;7.484;2022-11-22T15:22:09;98746.66;;;10.02;77.92
15193;BME280;7697;51.630;7.484;2022-11-22T15:27:18;98753.47;;;9.98;78.25
15193;BME280;7697;51.630;7.484;2022-11-22T15:32:21;98758.13;;;9.91;78.20
15193;BME280;7697;51.630;7.484;2022-11-22T15:37:30;98756.97;;;9.87;78.29
15193;BME280;7697;51.630;7.484;2022-11-22T15:42:35;98757.47;;;9.84;78.86
15193;BME280;7697;51.630;7.484;2022-11-22T15:47:39;98759.72;;;9.75;79.61
15193;BME280;7697;51.630;7.484;2022-11-22T15:52:48;98764.09;;;9.69;79.67
15193;BME280;7697;51.630;7.484;2022-11-22T15:57:52;98757.94;;;9.64;79.48
15193;BME280;7697;51.630;7.484;2022-11-22T16:02:57;98761.28;;;9.59;79.70
15193;BME280;7697;51.630;7.484;2022-11-22T16:08:01;98770.38;;;9.52;80.49
15193;BME280;7697;51.630;7.484;2022-11-22T16:13:11;98760.44;;;9.42;80.67
15193;BME280;7697;51.630;7.484;2022-11-22T16:18:23;98770.34;;;9.35;80.61
15193;BME280;7697;51.630;7.484;2022-11-22T16:23:27;98768.09;;;9.27;81.33
15193;BME280;7697;51.630;7.484;2022-11-22T16:28:34;98779.25;;;9.17;81.81
15193;BME280;7697;51.630;7.484;2022-11-22T16:33:37;98780.06;;;9.18;82.34
15193;BME280;7697;51.630;7.484;2022-11-22T16:38:39;98784.19;;;9.14;82.17
15193;BME280;7697;51.630;7.484;2022-11-22T16:43:42;98788.94;;;9.12;82.90
15193;BME280;7697;51.630;7.484;2022-11-22T16:48:45;98795.00;;;9.12;83.13
15193;BME280;7697;51.630;7.484;2022-11-22T16:53:48;98795.78;;;9.13;83.74
15193;BME280;7697;51.630;7.484;2022-11-22T16:58:54;98804.19;;;9.10;83.96
15193;BME280;7697;51.630;7.484;2022-11-22T17:03:58;98802.34;;;9.10;83.32
15193;BME280;7697;51.630;7.484;2022-11-22T17:09:02;98813.50;;;9.12;84.21
15193;BME280;7697;51.630;7.484;2022-11-22T17:14:04;98805.00;;;9.10;84.58
15193;BME280;7697;51.630;7.484;2022-11-22T17:19:07;98819.22;;;9.09;84.94
15193;BME280;7697;51.630;7.484;2022-11-22T17:24:16;98818.88;;;9.06;85.28
15193;BME280;7697;51.630;7.484;2022-11-22T17:29:18;98819.69;;;9.06;85.71
15193;BME280;7697;51.630;7.484;2022-11-22T17:34:21;98822.81;;;9.03;85.98
15193;BME280;7697;51.630;7.484;2022-11-22T17:39:23;98838.88;;;9.01;86.88
15193;BME280;7697;51.630;7.484;2022-11-22T17:44:24;98838.66;;;9.03;87.53
15193;BME280;7697;51.630;7.484;2022-11-22T17:49:27;98844.84;;;9.09;87.92
15193;BME280;7697;51.630;7.484;2022-11-22T17:54:29;98849.09;;;9.10;87.88
15193;BME280;7697;51.630;7.484;2022-11-22T17:59:31;98853.44;;;9.16;87.43
15193;BME280;7697;51.630;7.484;2022-11-22T18:04:34;98852.41;;;9.17;87.80
15193;BME280;7697;51.630;7.484;2022-11-22T18:09:35;98856.41;;;9.19;88.21
15193;BME280;7697;51.630;7.484;2022-11-22T18:14:37;98864.13;;;9.21;88.04
15193;BME280;7697;51.630;7.484;2022-11-22T18:19:40;98866.28;;;9.24;88.24
15193;BME280;7697;51.630;7.484;2022-11-22T18:24:42;98857.53;;;9.23;89.51
15193;BME280;7697;51.630;7.484;2022-11-22T18:29:44;98862.81;;;9.23;89.36
15193;BME280;7697;51.630;7.484;2022-11-22T18:34:47;98869.94;;;9.23;89.53
15193;BME280;7697;51.630;7.484;2022-11-22T18:39:49;98870.53;;;9.25;89.61
15193;BME280;7697;51.630;7.484;2022-11-22T18:44:51;98876.25;;;9.22;89.72
15193;BME280;7697;51.630;7.484;2022-11-22T18:49:54;98883.84;;;9.18;90.65
15193;BME280;7697;51.630;7.484;2022-11-22T18:54:55;98893.03;;;9.16;91.46
15193;BME280;7697;51.630;7.484;2022-11-22T18:59:57;98883.19;;;9.11;92.57
15193;BME280;7697;51.630;7.484;2022-11-22T19:05:00;98892.50;;;9.02;93.98
15193;BME280;7697;51.630;7.484;2022-11-22T19:10:02;98894.69;;;8.93;95.33
15193;BME280;7697;51.630;7.484;2022-11-22T19:15:05;98879.06;;;8.92;95.02
15193;BME280;7697;51.630;7.484;2022-11-22T19:20:09;98889.63;;;8.92;94.68
15193;BME280;7697;51.630;7.484;2022-11-22T19:25:12;98893.06;;;8.92;95.95
15193;BME280;7697;51.630;7.484;2022-11-22T19:30:14;98885.94;;;8.93;96.10
15193;BME280;7697;51.630;7.484;2022-11-22T19:35:17;98888.25;;;8.89;96.12
15193;BME280;7697;51.630;7.484;2022-11-22T19:40:19;98885.59;;;8.89;97.31
15193;BME280;7697;51.630;7.484;2022-11-22T19:45:21;98886.31;;;8.85;97.09
15193;BME280;7697;51.630;7.484;2022-11-22T19:50:24;98883.09;;;8.83;98.06
15193;BME280;7697;51.630;7.484;2022-11-22T19:55:25;98880.22;;;8.84;97.58
15193;BME280;7697;51.630;7.484;2022-11-22T20:00:27;98891.00;;;8.83;98.46
15193;BME280;7697;51.630;7.484;2022-11-22T20:05:31;98881.47;;;8.82;98.70
15193;BME280;7697;51.630;7.484;2022-11-22T20:10:33;98892.69;;;8.77;98.94
15193;BME280;7697;51.630;7.484;2022-11-22T20:15:35;98896.50;;;8.81;99.24
15193;BME280;7697;51.630;7.484;2022-11-22T20:20:41;98895.03;;;8.85;99.06
15193;BME280;7697;51.630;7.484;2022-11-22T20:25:43;98900.53;;;8.84;99.67
15193;BME280;7697;51.630;7.484;2022-11-22T20:30:44;98893.63;;;8.83;99.41
15193;BME280;7697;51.630;7.484;2022-11-22T20:35:48;98888.38;;;8.83;99.58
15193;BME280;7697;51.630;7.484;2022-11-22T20:40:54;98892.63;;;8.84;99.35
15193;BME280;7697;51.630;7.484;2022-11-22T20:46:06;98903.72;;;8.86;99.67
15193;BME280;7697;51.630;7.484;2022-11-22T20:51:14;98901.44;;;8.89;98.99
15193;BME280;7697;51.630;7.484;2022-11-22T20:56:18;98906.72;;;8.89;99.44
15193;BME280;7697;51.630;7.484;2022-11-22T21:01:22;98910.53;;;8.93;99.41
15193;BME280;7697;51.630;7.484;2022-11-22T21:06:25;98906.59;;;8.96;98.70
15193;BME280;7697;51.630;7.484;2022-11-22T21:11:28;98902.34;;;8.95;98.71
15193;BME280;7697;51.630;7.484;2022-11-22T21:16:36;98907.97;;;8.98;97.85
15193;BME280;7697;51.630;7.484;2022-11-22T21:21:39;98909.13;;;9.02;97.79
15193;BME280;7697;51.630;7.484;2022-11-22T21:26:41;98911.53;;;9.04;98.04
15193;BME280;7697;51.630;7.484;2022-11-22T21:31:43;98901.31;;;9.08;98.00
15193;BME280;7697;51.630;7.484;2022-11-22T21:36:46;98906.16;;;9.11;97.59
15193;BME280;7697;51.630;7.484;2022-11-22T21:41:48;98910.41;;;9.12;97.23
15193;BME280;7697;51.630;7.484;2022-11-22T21:46:49;98915.19;;;9.15;96.77
15193;BME280;7697;51.630;7.484;2022-11-22T21:51:53;98923.03;;;9.21;96.69
15193;BME280;7697;51.630;7.484;2022-11-22T21:56:55;98919.31;;;9.22;96.15
15193;BME280;7697;51.630;7.484;2022-11-22T22:01:57;98927.59;;;9.26;95.96
15193;BME280;7697;51.630;7.484;2022-11-22T22:07:03;98938.03;;;9.32;96.15
15193;BME280;7697;51.630;7.484;2022-11-22T22:12:05;98937.22;;;9.32;95.45
15193;BME280;7697;51.630;7.484;2022-11-22T22:17:09;98938.84;;;9.33;95.61
15193;BME280;7697;51.630;7.484;2022-11-22T22:22:13;98934.03;;;9.30;96.01
15193;BME280;7697;51.630;7.484;2022-11-22T22:27:17;98938.03;;;9.32;96.38
15193;BME280;7697;51.630;7.484;2022-11-22T22:32:22;98932.53;;;9.34;95.79
15193;BME280;7697;51.630;7.484;2022-11-22T22:37:26;98935.50;;;9.37;95.48
15193;BME280;7697;51.630;7.484;2022-11-22T22:42:31;98931.25;;;9.36;95.61
15193;BME280;7697;51.630;7.484;2022-11-22T22:47:36;98936.06;;;9.39;95.33
15193;BME280;7697;51.630;7.484;2022-11-22T22:52:39;98934.34;;;9.45;94.67
15193;BME280;7697;51.630;7.484;2022-11-22T22:57:41;98930.69;;;9.46;94.51
15193;BME280;7697;51.630;7.484;2022-11-22T23:02:42;98935.75;;;9.48;94.72
15193;BME280;7697;51.630;7.484;2022-11-22T23:07:45;98940.31;;;9.52;94.40
15193;BME280;7697;51.630;7.484;2022-11-22T23:12:47;98941.13;;;9.53;94.71
15193;BME280;7697;51.630;7.484;2022-11-22T23:17:49;98940.31;;;9.52;94.68
15193;BME280;7697;51.630;7.484;2022-11-22T23:22:52;98942.38;;;9.50;95.20
15193;BME280;7697;51.630;7.484;2022-11-22T23:27:54;98940.75;;;9.49;95.74
15193;BME280;7697;51.630;7.484;2022-11-22T23:32:56;98947.66;;;9.50;95.59
15193;BME280;7697;51.630;7.484;2022-11-22T23:38:02;98951.34;;;9.49;95.47
15193;BME280;7697;51.630;7.484;2022-11-22T23:43:05;98954.47;;;9.46;96.23
15193;BME280;7697;51.630;7.484;2022-11-22T23:48:07;98957.09;;;9.46;95.84
15193;BME280;7697;51.630;7.484;2022-11-22T23:53:10;98959.16;;;9.44;96.30
15193;BME280;7697;51.630;7.484;2022-11-22T23:58:14;98967.91;;;9.45;96.45
